sensor_id;sensor_type;location;lat;lon;timestamp;P1;durP1;ratioP1;P2;durP2;ratioP2
72406;SDS011;60396;47.550;18.828;2022-12-07T00:01:31;10.50;;;4.53;;
72406;SDS011;60396;47.550;18.828;2022-12-07T00:04:00;8.47;;;3.60;;
72406;SDS011;60396;47.550;18.828;2022-12-07T00:06:36;10.15;;;3.60;;
72406;SDS011;60396;47.550;18.828;2022-12-07T00:09:05;8.02;;;3.58;;
72406;SDS011;60396;47.550;18.828;2022-12-07T00:11:36;9.68;;;4.10;;
72406;SDS011;60396;47.550;18.828;2022-12-07T00:14:04;10.20;;;3.95;;
72406;SDS011;60396;47.550;18.828;2022-12-07T00:16:34;9.70;;;3.63;;
72406;SDS011;60396;47.550;18.828;2022-12-07T00:19:02;10.05;;;4.25;;
72406;SDS011;60396;47.550;18.828;2022-12-07T00:21:31;10.35;;;4.25;;
72406;SDS011;60396;47.550;18.828;2022-12-07T00:24:00;9.13;;;3.97;;
72406;SDS011;60396;47.550;18.828;2022-12-07T00:26:38;8.55;;;3.65;;
72406;SDS011;60396;47.550;18.828;2022-12-07T00:29:09;10.30;;;3.77;;
72406;SDS011;60396;47.550;18.828;2022-12-07T00:31:40;9.23;;;3.83;;
72406;SDS011;60396;47.550;18.828;2022-12-07T00:34:11;10.00;;;3.97;;
72406;SDS011;60396;47.550;18.828;2022-12-07T00:36:41;8.13;;;3.50;;
72406;SDS011;60396;47.550;18.828;2022-12-07T00:39:09;10.85;;;4.00;;
72406;SDS011;60396;47.550;18.828;2022-12-07T00:41:36;10.77;;;3.70;;
72406;SDS011;60396;47.550;18.828;2022-12-07T00:44:04;9.90;;;3.70;;
72406;SDS011;60396;47.550;18.828;2022-12-07T00:46:31;8.02;;;3.22;;
72406;SDS011;60396;47.550;18.828;2022-12-07T00:48:59;17.52;;;3.65;;
72406;SDS011;60396;47.550;18.828;2022-12-07T00:51:27;8.75;;;3.50;;
72406;SDS011;60396;47.550;18.828;2022-12-07T00:53:55;9.57;;;3.20;;
72406;SDS011;60396;47.550;18.828;2022-12-07T00:56:23;9.35;;;3.70;;
72406;SDS011;60396;47.550;18.828;2022-12-07T00:58:53;9.63;;;3.00;;
72406;SDS011;60396;47.550;18.828;2022-12-07T01:01:23;8.93;;;3.35;;
72406;SDS011;60396;47.550;18.828;2022-12-07T01:03:52;8.55;;;3.20;;
72406;SDS011;60396;47.550;18.828;2022-12-07T01:06:20;10.10;;;3.33;;
72406;SDS011;60396;47.550;18.828;2022-12-07T01:08:48;8.88;;;3.30;;
72406;SDS011;60396;47.550;18.828;2022-12-07T01:11:17;7.60;;;3.28;;
72406;SDS011;60396;47.550;18.828;2022-12-07T01:13:48;10.07;;;4.35;;
72406;SDS011;60396;47.550;18.828;2022-12-07T01:16:17;10.23;;;4.12;;
72406;SDS011;60396;47.550;18.828;2022-12-07T01:18:46;10.13;;;4.23;;
72406;SDS011;60396;47.550;18.828;2022-12-07T01:21:16;10.43;;;4.30;;
72406;SDS011;60396;47.550;18.828;2022-12-07T01:23:45;9.68;;;3.72;;
72406;SDS011;60396;47.550;18.828;2022-12-07T01:26:14;8.02;;;3.30;;
72406;SDS011;60396;47.550;18.828;2022-12-07T01:28:42;9.75;;;4.03;;
72406;SDS011;60396;47.550;18.828;2022-12-07T01:31:11;8.40;;;3.63;;
72406;SDS011;60396;47.550;18.828;2022-12-07T01:33:43;9.02;;;3.42;;
72406;SDS011;60396;47.550;18.828;2022-12-07T01:36:19;7.70;;;3.15;;
72406;SDS011;60396;47.550;18.828;2022-12-07T01:38:49;8.13;;;3.28;;
72406;SDS011;60396;47.550;18.828;2022-12-07T01:41:20;11.65;;;3.10;;
72406;SDS011;60396;47.550;18.828;2022-12-07T01:47:04;9.82;;;3.40;;
72406;SDS011;60396;47.550;18.828;2022-12-07T01:54:51;8.65;;;3.20;;
72406;SDS011;60396;47.550;18.828;2022-12-07T01:57:21;11.00;;;3.60;;
72406;SDS011;60396;47.550;18.828;2022-12-07T01:59:49;8.05;;;3.22;;
72406;SDS011;60396;47.550;18.828;2022-12-07T02:02:19;7.85;;;3.12;;
72406;SDS011;60396;47.550;18.828;2022-12-07T02:04:48;8.30;;;3.22;;
72406;SDS011;60396;47.550;18.828;2022-12-07T02:07:16;7.15;;;2.92;;
72406;SDS011;60396;47.550;18.828;2022-12-07T02:09:43;9.53;;;3.60;;
72406;SDS011;60396;47.550;18.828;2022-12-07T02:12:11;7.93;;;3.17;;
72406;SDS011;60396;47.550;18.828;2022-12-07T02:14:39;8.68;;;3.42;;
72406;SDS011;60396;47.550;18.828;2022-12-07T02:28:19;6.97;;;2.85;;
72406;SDS011;60396;47.550;18.828;2022-12-07T02:30:52;7.87;;;3.42;;
72406;SDS011;60396;47.550;18.828;2022-12-07T02:33:29;10.13;;;3.37;;
72406;SDS011;60396;47.550;18.828;2022-12-07T02:36:17;9.37;;;3.60;;
72406;SDS011;60396;47.550;18.828;2022-12-07T02:44:02;9.52;;;3.65;;
72406;SDS011;60396;47.550;18.828;2022-12-07T02:46:33;8.50;;;3.30;;
72406;SDS011;60396;47.550;18.828;2022-12-07T02:49:04;7.90;;;3.13;;
72406;SDS011;60396;47.550;18.828;2022-12-07T02:51:32;9.50;;;3.53;;
72406;SDS011;60396;47.550;18.828;2022-12-07T02:54:01;8.73;;;3.50;;
72406;SDS011;60396;47.550;18.828;2022-12-07T02:56:39;8.30;;;3.45;;
72406;SDS011;60396;47.550;18.828;2022-12-07T03:07:49;9.25;;;3.12;;
72406;SDS011;60396;47.550;18.828;2022-12-07T03:11:08;9.02;;;3.67;;
72406;SDS011;60396;47.550;18.828;2022-12-07T03:13:30;9.57;;;4.12;;
72406;SDS011;60396;47.550;18.828;2022-12-07T03:19:00;10.50;;;4.82;;
72406;SDS011;60396;47.550;18.828;2022-12-07T03:21:36;9.43;;;4.35;;
72406;SDS011;60396;47.550;18.828;2022-12-07T03:24:13;13.77;;;5.60;;
72406;SDS011;60396;47.550;18.828;2022-12-07T03:26:44;11.43;;;4.97;;
72406;SDS011;60396;47.550;18.828;2022-12-07T03:29:19;11.20;;;5.37;;
72406;SDS011;60396;47.550;18.828;2022-12-07T03:32:10;10.55;;;5.07;;
72406;SDS011;60396;47.550;18.828;2022-12-07T03:34:44;11.75;;;5.87;;
72406;SDS011;60396;47.550;18.828;2022-12-07T03:37:17;10.50;;;5.60;;
72406;SDS011;60396;47.550;18.828;2022-12-07T03:39:58;11.15;;;5.72;;
72406;SDS011;60396;47.550;18.828;2022-12-07T03:42:53;13.20;;;5.93;;
72406;SDS011;60396;47.550;18.828;2022-12-07T03:45:23;14.13;;;6.78;;
72406;SDS011;60396;47.550;18.828;2022-12-07T03:48:03;12.48;;;6.30;;
72406;SDS011;60396;47.550;18.828;2022-12-07T03:50:57;11.48;;;5.37;;
72406;SDS011;60396;47.550;18.828;2022-12-07T03:53:37;12.88;;;5.37;;
72406;SDS011;60396;47.550;18.828;2022-12-07T03:56:07;26.97;;;15.83;;
72406;SDS011;60396;47.550;18.828;2022-12-07T03:58:36;14.07;;;8.35;;
72406;SDS011;60396;47.550;18.828;2022-12-07T04:01:04;12.23;;;5.55;;
72406;SDS011;60396;47.550;18.828;2022-12-07T04:03:32;11.52;;;4.55;;
72406;SDS011;60396;47.550;18.828;2022-12-07T04:05:59;12.57;;;5.62;;
72406;SDS011;60396;47.550;18.828;2022-12-07T04:08:27;13.33;;;5.57;;
72406;SDS011;60396;47.550;18.828;2022-12-07T04:10:55;12.05;;;5.60;;
72406;SDS011;60396;47.550;18.828;2022-12-07T04:13:23;13.52;;;5.47;;
72406;SDS011;60396;47.550;18.828;2022-12-07T04:15:50;13.07;;;6.30;;
72406;SDS011;60396;47.550;18.828;2022-12-07T04:18:18;11.63;;;5.43;;
72406;SDS011;60396;47.550;18.828;2022-12-07T04:20:45;12.10;;;5.73;;
72406;SDS011;60396;47.550;18.828;2022-12-07T04:23:13;12.15;;;5.70;;
72406;SDS011;60396;47.550;18.828;2022-12-07T04:25:41;11.75;;;5.87;;
72406;SDS011;60396;47.550;18.828;2022-12-07T04:28:08;11.27;;;5.45;;
72406;SDS011;60396;47.550;18.828;2022-12-07T04:30:36;12.68;;;5.32;;
72406;SDS011;60396;47.550;18.828;2022-12-07T04:33:04;14.40;;;5.97;;
72406;SDS011;60396;47.550;18.828;2022-12-07T04:35:31;13.85;;;6.22;;
72406;SDS011;60396;47.550;18.828;2022-12-07T04:37:58;12.40;;;6.43;;
72406;SDS011;60396;47.550;18.828;2022-12-07T04:40:26;12.88;;;6.57;;
72406;SDS011;60396;47.550;18.828;2022-12-07T04:42:54;13.75;;;6.55;;
72406;SDS011;60396;47.550;18.828;2022-12-07T04:45:21;12.37;;;6.60;;
72406;SDS011;60396;47.550;18.828;2022-12-07T04:47:49;11.25;;;6.03;;
72406;SDS011;60396;47.550;18.828;2022-12-07T04:50:16;11.68;;;5.47;;
72406;SDS011;60396;47.550;18.828;2022-12-07T04:52:44;11.50;;;5.10;;
72406;SDS011;60396;47.550;18.828;2022-12-07T04:55:11;11.10;;;5.00;;
72406;SDS011;60396;47.550;18.828;2022-12-07T04:57:39;10.00;;;4.40;;
72406;SDS011;60396;47.550;18.828;2022-12-07T05:00:07;11.35;;;5.62;;
72406;SDS011;60396;47.550;18.828;2022-12-07T05:02:35;13.55;;;5.78;;
72406;SDS011;60396;47.550;18.828;2022-12-07T05:05:03;11.25;;;5.28;;
72406;SDS011;60396;47.550;18.828;2022-12-07T05:07:30;10.63;;;4.50;;
72406;SDS011;60396;47.550;18.828;2022-12-07T05:09:59;9.47;;;4.40;;
72406;SDS011;60396;47.550;18.828;2022-12-07T05:12:27;10.07;;;4.45;;
72406;SDS011;60396;47.550;18.828;2022-12-07T05:14:54;10.18;;;4.32;;
72406;SDS011;60396;47.550;18.828;2022-12-07T05:17:22;9.95;;;4.20;;
72406;SDS011;60396;47.550;18.828;2022-12-07T05:19:50;10.77;;;4.07;;
72406;SDS011;60396;47.550;18.828;2022-12-07T05:22:17;10.23;;;4.67;;
72406;SDS011;60396;47.550;18.828;2022-12-07T05:24:45;11.05;;;4.30;;
72406;SDS011;60396;47.550;18.828;2022-12-07T05:27:12;9.52;;;3.85;;
72406;SDS011;60396;47.550;18.828;2022-12-07T05:29:42;9.02;;;4.22;;
72406;SDS011;60396;47.550;18.828;2022-12-07T05:32:10;9.13;;;4.22;;
72406;SDS011;60396;47.550;18.828;2022-12-07T05:34:37;8.77;;;3.70;;
72406;SDS011;60396;47.550;18.828;2022-12-07T05:37:05;11.63;;;4.25;;
72406;SDS011;60396;47.550;18.828;2022-12-07T05:39:33;8.85;;;3.65;;
72406;SDS011;60396;47.550;18.828;2022-12-07T05:42:00;10.57;;;4.07;;
72406;SDS011;60396;47.550;18.828;2022-12-07T05:44:40;9.98;;;4.50;;
72406;SDS011;60396;47.550;18.828;2022-12-07T05:47:09;9.13;;;3.77;;
72406;SDS011;60396;47.550;18.828;2022-12-07T05:49:37;11.25;;;4.57;;
72406;SDS011;60396;47.550;18.828;2022-12-07T05:52:05;9.27;;;3.92;;
72406;SDS011;60396;47.550;18.828;2022-12-07T05:54:32;8.65;;;4.03;;
72406;SDS011;60396;47.550;18.828;2022-12-07T05:57:00;8.85;;;4.15;;
72406;SDS011;60396;47.550;18.828;2022-12-07T05:59:28;10.60;;;4.70;;
72406;SDS011;60396;47.550;18.828;2022-12-07T06:01:57;11.00;;;5.15;;
72406;SDS011;60396;47.550;18.828;2022-12-07T06:04:27;11.68;;;4.70;;
72406;SDS011;60396;47.550;18.828;2022-12-07T06:06:56;10.85;;;5.22;;
72406;SDS011;60396;47.550;18.828;2022-12-07T06:09:24;13.15;;;5.03;;
72406;SDS011;60396;47.550;18.828;2022-12-07T06:11:53;12.50;;;5.37;;
72406;SDS011;60396;47.550;18.828;2022-12-07T06:14:39;10.38;;;4.70;;
72406;SDS011;60396;47.550;18.828;2022-12-07T06:17:07;11.90;;;5.43;;
72406;SDS011;60396;47.550;18.828;2022-12-07T06:19:35;11.68;;;5.22;;
72406;SDS011;60396;47.550;18.828;2022-12-07T06:22:03;12.50;;;5.50;;
72406;SDS011;60396;47.550;18.828;2022-12-07T06:24:32;11.13;;;5.20;;
72406;SDS011;60396;47.550;18.828;2022-12-07T06:27:00;11.15;;;5.53;;
72406;SDS011;60396;47.550;18.828;2022-12-07T06:29:27;12.45;;;6.07;;
72406;SDS011;60396;47.550;18.828;2022-12-07T06:31:55;11.95;;;6.53;;
72406;SDS011;60396;47.550;18.828;2022-12-07T06:34:23;12.55;;;6.03;;
72406;SDS011;60396;47.550;18.828;2022-12-07T06:36:51;14.50;;;6.10;;
72406;SDS011;60396;47.550;18.828;2022-12-07T06:39:21;12.00;;;5.55;;
72406;SDS011;60396;47.550;18.828;2022-12-07T06:41:51;13.20;;;6.00;;
72406;SDS011;60396;47.550;18.828;2022-12-07T06:44:19;12.82;;;6.62;;
72406;SDS011;60396;47.550;18.828;2022-12-07T06:46:48;15.85;;;6.72;;
72406;SDS011;60396;47.550;18.828;2022-12-07T06:49:16;16.33;;;7.67;;
72406;SDS011;60396;47.550;18.828;2022-12-07T06:51:44;14.05;;;6.82;;
72406;SDS011;60396;47.550;18.828;2022-12-07T06:54:12;13.73;;;6.85;;
72406;SDS011;60396;47.550;18.828;2022-12-07T06:56:40;14.82;;;6.72;;
72406;SDS011;60396;47.550;18.828;2022-12-07T06:59:08;12.68;;;6.95;;
72406;SDS011;60396;47.550;18.828;2022-12-07T07:01:36;14.47;;;6.83;;
72406;SDS011;60396;47.550;18.828;2022-12-07T07:04:04;15.40;;;7.28;;
72406;SDS011;60396;47.550;18.828;2022-12-07T07:06:31;14.48;;;7.00;;
72406;SDS011;60396;47.550;18.828;2022-12-07T07:08:59;15.65;;;7.62;;
72406;SDS011;60396;47.550;18.828;2022-12-07T07:11:27;14.10;;;7.30;;
72406;SDS011;60396;47.550;18.828;2022-12-07T07:13:54;16.67;;;7.77;;
72406;SDS011;60396;47.550;18.828;2022-12-07T07:16:24;16.65;;;8.63;;
72406;SDS011;60396;47.550;18.828;2022-12-07T07:18:52;22.92;;;11.50;;
72406;SDS011;60396;47.550;18.828;2022-12-07T07:21:19;24.67;;;12.32;;
72406;SDS011;60396;47.550;18.828;2022-12-07T07:23:47;23.08;;;11.80;;
72406;SDS011;60396;47.550;18.828;2022-12-07T07:26:14;24.57;;;12.90;;
72406;SDS011;60396;47.550;18.828;2022-12-07T07:28:49;26.37;;;13.15;;
72406;SDS011;60396;47.550;18.828;2022-12-07T07:31:16;23.08;;;11.68;;
72406;SDS011;60396;47.550;18.828;2022-12-07T07:33:47;23.05;;;11.60;;
72406;SDS011;60396;47.550;18.828;2022-12-07T07:36:15;22.13;;;11.07;;
72406;SDS011;60396;47.550;18.828;2022-12-07T07:38:42;22.00;;;11.53;;
72406;SDS011;60396;47.550;18.828;2022-12-07T07:41:10;22.55;;;11.85;;
72406;SDS011;60396;47.550;18.828;2022-12-07T07:43:37;23.70;;;12.32;;
72406;SDS011;60396;47.550;18.828;2022-12-07T07:46:05;26.80;;;12.45;;
72406;SDS011;60396;47.550;18.828;2022-12-07T07:48:32;26.58;;;12.77;;
72406;SDS011;60396;47.550;18.828;2022-12-07T07:51:00;25.83;;;12.47;;
72406;SDS011;60396;47.550;18.828;2022-12-07T07:53:28;20.90;;;11.48;;
72406;SDS011;60396;47.550;18.828;2022-12-07T07:55:55;22.92;;;11.02;;
72406;SDS011;60396;47.550;18.828;2022-12-07T07:58:24;20.60;;;10.05;;
72406;SDS011;60396;47.550;18.828;2022-12-07T08:00:51;18.48;;;10.27;;
72406;SDS011;60396;47.550;18.828;2022-12-07T08:03:19;22.37;;;10.43;;
72406;SDS011;60396;47.550;18.828;2022-12-07T08:05:46;24.83;;;11.27;;
72406;SDS011;60396;47.550;18.828;2022-12-07T08:08:14;23.67;;;12.75;;
72406;SDS011;60396;47.550;18.828;2022-12-07T08:10:42;27.48;;;15.30;;
72406;SDS011;60396;47.550;18.828;2022-12-07T08:13:10;33.40;;;16.30;;
72406;SDS011;60396;47.550;18.828;2022-12-07T08:15:38;28.47;;;14.77;;
72406;SDS011;60396;47.550;18.828;2022-12-07T08:18:07;26.75;;;13.40;;
72406;SDS011;60396;47.550;18.828;2022-12-07T08:20:35;25.52;;;13.62;;
72406;SDS011;60396;47.550;18.828;2022-12-07T08:23:03;26.85;;;13.75;;
72406;SDS011;60396;47.550;18.828;2022-12-07T08:25:31;31.25;;;14.82;;
72406;SDS011;60396;47.550;18.828;2022-12-07T08:27:59;28.60;;;13.97;;
72406;SDS011;60396;47.550;18.828;2022-12-07T08:30:28;29.48;;;14.27;;
72406;SDS011;60396;47.550;18.828;2022-12-07T08:32:57;28.38;;;14.38;;
72406;SDS011;60396;47.550;18.828;2022-12-07T08:35:24;27.30;;;13.88;;
72406;SDS011;60396;47.550;18.828;2022-12-07T08:37:53;28.48;;;13.82;;
72406;SDS011;60396;47.550;18.828;2022-12-07T08:40:21;25.00;;;12.87;;
72406;SDS011;60396;47.550;18.828;2022-12-07T08:42:49;26.37;;;13.00;;
72406;SDS011;60396;47.550;18.828;2022-12-07T08:45:17;23.15;;;12.25;;
72406;SDS011;60396;47.550;18.828;2022-12-07T08:48:04;23.38;;;12.80;;
72406;SDS011;60396;47.550;18.828;2022-12-07T08:50:33;22.52;;;10.82;;
72406;SDS011;60396;47.550;18.828;2022-12-07T08:53:01;24.43;;;12.40;;
72406;SDS011;60396;47.550;18.828;2022-12-07T08:55:30;24.60;;;11.38;;
72406;SDS011;60396;47.550;18.828;2022-12-07T08:57:58;22.45;;;11.75;;
72406;SDS011;60396;47.550;18.828;2022-12-07T09:00:26;21.58;;;11.98;;
72406;SDS011;60396;47.550;18.828;2022-12-07T09:02:54;21.87;;;11.07;;
72406;SDS011;60396;47.550;18.828;2022-12-07T09:05:21;22.07;;;11.63;;
72406;SDS011;60396;47.550;18.828;2022-12-07T09:07:51;21.12;;;11.48;;
72406;SDS011;60396;47.550;18.828;2022-12-07T09:10:22;28.70;;;12.68;;
72406;SDS011;60396;47.550;18.828;2022-12-07T09:12:51;25.85;;;11.70;;
72406;SDS011;60396;47.550;18.828;2022-12-07T09:15:18;20.80;;;11.02;;
72406;SDS011;60396;47.550;18.828;2022-12-07T09:17:46;21.77;;;11.63;;
72406;SDS011;60396;47.550;18.828;2022-12-07T09:20:14;26.20;;;11.57;;
72406;SDS011;60396;47.550;18.828;2022-12-07T09:22:41;42.67;;;11.63;;
72406;SDS011;60396;47.550;18.828;2022-12-07T09:25:08;43.25;;;10.57;;
72406;SDS011;60396;47.550;18.828;2022-12-07T09:27:36;46.47;;;9.52;;
72406;SDS011;60396;47.550;18.828;2022-12-07T09:30:04;29.20;;;9.13;;
72406;SDS011;60396;47.550;18.828;2022-12-07T09:32:33;17.80;;;7.87;;
72406;SDS011;60396;47.550;18.828;2022-12-07T09:35:01;14.40;;;7.07;;
72406;SDS011;60396;47.550;18.828;2022-12-07T09:37:28;14.10;;;6.65;;
72406;SDS011;60396;47.550;18.828;2022-12-07T09:39:56;15.93;;;6.80;;
72406;SDS011;60396;47.550;18.828;2022-12-07T09:42:26;13.57;;;6.50;;
72406;SDS011;60396;47.550;18.828;2022-12-07T09:44:56;16.08;;;7.12;;
72406;SDS011;60396;47.550;18.828;2022-12-07T09:47:25;15.02;;;8.00;;
72406;SDS011;60396;47.550;18.828;2022-12-07T09:49:58;14.70;;;6.85;;
72406;SDS011;60396;47.550;18.828;2022-12-07T09:52:31;15.88;;;7.43;;
72406;SDS011;60396;47.550;18.828;2022-12-07T09:55:12;19.10;;;8.17;;
72406;SDS011;60396;47.550;18.828;2022-12-07T09:57:41;16.12;;;8.07;;
72406;SDS011;60396;47.550;18.828;2022-12-07T10:00:14;18.75;;;9.25;;
72406;SDS011;60396;47.550;18.828;2022-12-07T10:03:05;17.70;;;7.60;;
72406;SDS011;60396;47.550;18.828;2022-12-07T10:05:42;14.90;;;8.45;;
72406;SDS011;60396;47.550;18.828;2022-12-07T10:08:14;18.37;;;8.97;;
72406;SDS011;60396;47.550;18.828;2022-12-07T10:10:45;17.52;;;8.40;;
72406;SDS011;60396;47.550;18.828;2022-12-07T10:13:22;15.48;;;8.00;;
72406;SDS011;60396;47.550;18.828;2022-12-07T10:16:02;14.43;;;7.43;;
72406;SDS011;60396;47.550;18.828;2022-12-07T10:23:35;14.27;;;7.22;;
72406;SDS011;60396;47.550;18.828;2022-12-07T10:29:17;13.35;;;6.18;;
72406;SDS011;60396;47.550;18.828;2022-12-07T10:31:54;12.98;;;6.35;;
72406;SDS011;60396;47.550;18.828;2022-12-07T10:34:25;13.20;;;6.70;;
72406;SDS011;60396;47.550;18.828;2022-12-07T10:39:51;15.40;;;7.15;;
72406;SDS011;60396;47.550;18.828;2022-12-07T10:42:25;15.80;;;7.43;;
72406;SDS011;60396;47.550;18.828;2022-12-07T10:50:23;15.30;;;7.12;;
72406;SDS011;60396;47.550;18.828;2022-12-07T11:18:22;14.48;;;7.43;;
72406;SDS011;60396;47.550;18.828;2022-12-07T11:23:56;15.45;;;6.15;;
72406;SDS011;60396;47.550;18.828;2022-12-07T11:29:24;16.03;;;7.10;;
72406;SDS011;60396;47.550;18.828;2022-12-07T11:37:25;14.93;;;7.53;;
72406;SDS011;60396;47.550;18.828;2022-12-07T11:42:41;16.10;;;7.80;;
72406;SDS011;60396;47.550;18.828;2022-12-07T11:45:24;14.43;;;7.03;;
72406;SDS011;60396;47.550;18.828;2022-12-07T11:47:55;14.38;;;7.10;;
72406;SDS011;60396;47.550;18.828;2022-12-07T11:56:03;16.40;;;7.33;;
72406;SDS011;60396;47.550;18.828;2022-12-07T12:03:45;14.02;;;6.68;;
72406;SDS011;60396;47.550;18.828;2022-12-07T12:06:19;12.63;;;6.45;;
72406;SDS011;60396;47.550;18.828;2022-12-07T12:08:55;13.43;;;6.00;;
72406;SDS011;60396;47.550;18.828;2022-12-07T12:23:36;12.87;;;6.27;;
72406;SDS011;60396;47.550;18.828;2022-12-07T12:26:13;14.27;;;5.97;;
72406;SDS011;60396;47.550;18.828;2022-12-07T12:31:47;13.55;;;6.28;;
72406;SDS011;60396;47.550;18.828;2022-12-07T12:40:43;12.05;;;6.40;;
72406;SDS011;60396;47.550;18.828;2022-12-07T12:42:51;12.57;;;6.07;;
72406;SDS011;60396;47.550;18.828;2022-12-07T12:50:35;11.53;;;5.13;;
72406;SDS011;60396;47.550;18.828;2022-12-07T12:53:14;12.57;;;6.10;;
72406;SDS011;60396;47.550;18.828;2022-12-07T12:58:39;17.17;;;6.57;;
72406;SDS011;60396;47.550;18.828;2022-12-07T13:03:55;127.87;;;50.23;;
72406;SDS011;60396;47.550;18.828;2022-12-07T13:08:55;89.00;;;31.67;;
72406;SDS011;60396;47.550;18.828;2022-12-07T13:11:28;62.53;;;31.60;;
72406;SDS011;60396;47.550;18.828;2022-12-07T13:17:04;24.47;;;16.20;;
72406;SDS011;60396;47.550;18.828;2022-12-07T13:26:00;15.02;;;7.70;;
72406;SDS011;60396;47.550;18.828;2022-12-07T13:28:14;16.42;;;7.12;;
72406;SDS011;60396;47.550;18.828;2022-12-07T13:30:48;16.03;;;7.43;;
72406;SDS011;60396;47.550;18.828;2022-12-07T13:33:27;16.12;;;7.62;;
72406;SDS011;60396;47.550;18.828;2022-12-07T13:35:55;15.98;;;7.37;;
72406;SDS011;60396;47.550;18.828;2022-12-07T13:38:28;15.68;;;7.07;;
72406;SDS011;60396;47.550;18.828;2022-12-07T13:43:44;13.63;;;6.70;;
72406;SDS011;60396;47.550;18.828;2022-12-07T13:46:41;14.75;;;7.68;;
72406;SDS011;60396;47.550;18.828;2022-12-07T13:51:50;14.87;;;6.97;;
72406;SDS011;60396;47.550;18.828;2022-12-07T13:54:18;12.98;;;6.30;;
72406;SDS011;60396;47.550;18.828;2022-12-07T13:56:47;12.83;;;6.30;;
72406;SDS011;60396;47.550;18.828;2022-12-07T13:59:22;13.98;;;6.65;;
72406;SDS011;60396;47.550;18.828;2022-12-07T14:01:51;14.35;;;5.70;;
72406;SDS011;60396;47.550;18.828;2022-12-07T14:06:53;13.27;;;5.87;;
72406;SDS011;60396;47.550;18.828;2022-12-07T14:09:22;13.60;;;6.37;;
72406;SDS011;60396;47.550;18.828;2022-12-07T14:11:52;13.15;;;6.07;;
72406;SDS011;60396;47.550;18.828;2022-12-07T14:14:22;12.13;;;6.05;;
72406;SDS011;60396;47.550;18.828;2022-12-07T14:19:54;14.15;;;5.82;;
72406;SDS011;60396;47.550;18.828;2022-12-07T14:24:58;13.25;;;5.87;;
72406;SDS011;60396;47.550;18.828;2022-12-07T14:27:50;13.23;;;6.00;;
72406;SDS011;60396;47.550;18.828;2022-12-07T14:30:20;14.18;;;6.68;;
72406;SDS011;60396;47.550;18.828;2022-12-07T14:32:48;13.35;;;6.07;;
72406;SDS011;60396;47.550;18.828;2022-12-07T14:35:19;11.77;;;5.37;;
72406;SDS011;60396;47.550;18.828;2022-12-07T14:37:48;13.07;;;6.07;;
72406;SDS011;60396;47.550;18.828;2022-12-07T14:40:22;11.88;;;5.72;;
72406;SDS011;60396;47.550;18.828;2022-12-07T14:43:34;14.18;;;6.30;;
72406;SDS011;60396;47.550;18.828;2022-12-07T14:45:43;13.60;;;5.25;;
72406;SDS011;60396;47.550;18.828;2022-12-07T14:48:15;10.97;;;5.30;;
72406;SDS011;60396;47.550;18.828;2022-12-07T14:51:02;15.25;;;6.35;;
72406;SDS011;60396;47.550;18.828;2022-12-07T14:53:51;12.45;;;5.55;;
72406;SDS011;60396;47.550;18.828;2022-12-07T14:56:24;14.07;;;6.15;;
72406;SDS011;60396;47.550;18.828;2022-12-07T14:58:52;16.12;;;7.35;;
72406;SDS011;60396;47.550;18.828;2022-12-07T15:01:19;14.83;;;6.80;;
72406;SDS011;60396;47.550;18.828;2022-12-07T15:03:47;14.93;;;7.53;;
72406;SDS011;60396;47.550;18.828;2022-12-07T15:06:16;17.12;;;7.20;;
72406;SDS011;60396;47.550;18.828;2022-12-07T15:08:45;17.60;;;7.50;;
72406;SDS011;60396;47.550;18.828;2022-12-07T15:11:17;14.38;;;7.20;;
72406;SDS011;60396;47.550;18.828;2022-12-07T15:13:45;15.20;;;6.93;;
72406;SDS011;60396;47.550;18.828;2022-12-07T15:16:31;13.93;;;6.72;;
72406;SDS011;60396;47.550;18.828;2022-12-07T15:19:21;13.70;;;6.57;;
72406;SDS011;60396;47.550;18.828;2022-12-07T15:21:56;15.27;;;7.20;;
72406;SDS011;60396;47.550;18.828;2022-12-07T15:24:24;14.45;;;6.40;;
72406;SDS011;60396;47.550;18.828;2022-12-07T15:26:51;14.13;;;6.47;;
72406;SDS011;60396;47.550;18.828;2022-12-07T15:29:19;12.95;;;6.25;;
72406;SDS011;60396;47.550;18.828;2022-12-07T15:31:50;12.13;;;5.55;;
72406;SDS011;60396;47.550;18.828;2022-12-07T15:34:24;14.18;;;6.00;;
72406;SDS011;60396;47.550;18.828;2022-12-07T15:36:53;13.20;;;5.95;;
72406;SDS011;60396;47.550;18.828;2022-12-07T15:39:20;11.77;;;5.53;;
72406;SDS011;60396;47.550;18.828;2022-12-07T15:41:48;12.70;;;5.90;;
72406;SDS011;60396;47.550;18.828;2022-12-07T15:44:16;11.40;;;5.32;;
72406;SDS011;60396;47.550;18.828;2022-12-07T15:47:03;13.77;;;6.53;;
72406;SDS011;60396;47.550;18.828;2022-12-07T15:49:31;14.20;;;6.55;;
72406;SDS011;60396;47.550;18.828;2022-12-07T15:51:59;13.20;;;6.10;;
72406;SDS011;60396;47.550;18.828;2022-12-07T15:54:27;11.43;;;5.53;;
72406;SDS011;60396;47.550;18.828;2022-12-07T15:56:56;13.65;;;5.37;;
72406;SDS011;60396;47.550;18.828;2022-12-07T15:59:25;14.45;;;5.70;;
72406;SDS011;60396;47.550;18.828;2022-12-07T16:01:53;10.98;;;5.22;;
72406;SDS011;60396;47.550;18.828;2022-12-07T16:04:21;12.43;;;4.93;;
72406;SDS011;60396;47.550;18.828;2022-12-07T16:06:48;8.98;;;3.75;;
72406;SDS011;60396;47.550;18.828;2022-12-07T16:09:18;11.95;;;4.80;;
72406;SDS011;60396;47.550;18.828;2022-12-07T16:11:46;12.55;;;5.18;;
72406;SDS011;60396;47.550;18.828;2022-12-07T16:14:14;11.38;;;4.82;;
72406;SDS011;60396;47.550;18.828;2022-12-07T16:16:41;10.17;;;4.17;;
72406;SDS011;60396;47.550;18.828;2022-12-07T16:19:09;11.15;;;4.50;;
72406;SDS011;60396;47.550;18.828;2022-12-07T16:21:38;11.52;;;5.05;;
72406;SDS011;60396;47.550;18.828;2022-12-07T16:24:06;10.68;;;4.32;;
72406;SDS011;60396;47.550;18.828;2022-12-07T16:26:34;11.35;;;4.93;;
72406;SDS011;60396;47.550;18.828;2022-12-07T16:29:02;11.03;;;5.07;;
72406;SDS011;60396;47.550;18.828;2022-12-07T16:31:29;11.45;;;5.28;;
72406;SDS011;60396;47.550;18.828;2022-12-07T16:33:58;12.68;;;5.15;;
72406;SDS011;60396;47.550;18.828;2022-12-07T16:36:26;11.98;;;5.22;;
72406;SDS011;60396;47.550;18.828;2022-12-07T16:39:14;11.82;;;5.12;;
72406;SDS011;60396;47.550;18.828;2022-12-07T16:41:42;16.73;;;6.13;;
72406;SDS011;60396;47.550;18.828;2022-12-07T16:44:10;14.00;;;5.95;;
72406;SDS011;60396;47.550;18.828;2022-12-07T16:46:39;13.93;;;6.60;;
72406;SDS011;60396;47.550;18.828;2022-12-07T16:49:12;16.50;;;6.93;;
72406;SDS011;60396;47.550;18.828;2022-12-07T16:51:40;15.73;;;6.78;;
72406;SDS011;60396;47.550;18.828;2022-12-07T16:54:11;14.80;;;6.63;;
72406;SDS011;60396;47.550;18.828;2022-12-07T16:56:39;13.35;;;5.93;;
72406;SDS011;60396;47.550;18.828;2022-12-07T16:59:07;17.27;;;6.25;;
72406;SDS011;60396;47.550;18.828;2022-12-07T17:01:35;14.15;;;5.55;;
72406;SDS011;60396;47.550;18.828;2022-12-07T17:04:03;11.60;;;5.00;;
72406;SDS011;60396;47.550;18.828;2022-12-07T17:06:31;11.80;;;5.13;;
72406;SDS011;60396;47.550;18.828;2022-12-07T17:08:59;13.62;;;5.93;;
72406;SDS011;60396;47.550;18.828;2022-12-07T17:11:28;13.43;;;5.72;;
72406;SDS011;60396;47.550;18.828;2022-12-07T17:13:58;13.35;;;5.95;;
72406;SDS011;60396;47.550;18.828;2022-12-07T17:16:44;13.20;;;5.53;;
72406;SDS011;60396;47.550;18.828;2022-12-07T17:19:13;17.53;;;5.57;;
72406;SDS011;60396;47.550;18.828;2022-12-07T17:21:42;13.45;;;5.70;;